sensor_id;sensor_type;location;lat;lon;timestamp;pressure;altitude;pressure_sealevel;temperature;humidity
17230;BME280;8731;50.364;8.958;2022-07-17T00:02:56;101033.16;;;15.36;55.24
17230;BME280;8731;50.364;8.958;2022-07-17T00:07:18;101033.00;;;15.24;55.96
17230;BME280;8731;50.364;8.958;2022-07-17T00:11:41;101034.41;;;14.92;57.63
17230;BME280;8731;50.364;8.958;2022-07-17T00:16:05;101037.38;;;14.96;56.85
17230;BME280;8731;50.364;8.958;2022-07-17T00:20:29;101041.09;;;15.00;56.26
17230;BME280;8731;50.364;8.958;2022-07-17T00:24:51;101038.19;;;14.87;56.95
17230;BME280;8731;50.364;8.958;2022-07-17T00:29:14;101042.31;;;14.47;58.48
17230;BME280;8731;50.364;8.958;2022-07-17T00:33:38;101050.41;;;14.52;58.72
17230;BME280;8731;50.364;8.958;2022-07-17T00:38:00;101049.50;;;14.51;58.49
17230;BME280;8731;50.364;8.958;2022-07-17T00:42:23;101056.25;;;14.32;58.87
17230;BME280;8731;50.364;8.958;2022-07-17T00:46:45;101059.94;;;14.17;60.03
17230;BME280;8731;50.364;8.958;2022-07-17T00:51:09;101052.25;;;14.17;59.51
17230;BME280;8731;50.364;8.958;2022-07-17T00:55:32;101053.97;;;14.07;58.94
17230;BME280;8731;50.364;8.958;2022-07-17T00:59:54;101046.09;;;13.87;59.74
17230;BME280;8731;50.364;8.958;2022-07-17T01:04:17;101035.56;;;13.84;60.11
17230;BME280;8731;50.364;8.958;2022-07-17T01:08:41;101034.06;;;13.86;60.25
17230;BME280;8731;50.364;8.958;2022-07-17T01:13:03;101035.28;;;13.81;60.07
17230;BME280;8731;50.364;8.958;2022-07-17T01:17:26;101027.19;;;13.76;60.28
17230;BME280;8731;50.364;8.958;2022-07-17T01:21:50;101029.91;;;13.69;60.28
17230;BME280;8731;50.364;8.958;2022-07-17T01:26:13;101026.31;;;13.67;60.96
17230;BME280;8731;50.364;8.958;2022-07-17T01:30:35;101028.22;;;13.42;62.29
17230;BME280;8731;50.364;8.958;2022-07-17T01:34:58;101025.19;;;13.46;61.53
17230;BME280;8731;50.364;8.958;2022-07-17T01:39:22;101044.50;;;13.34;62.21
17230;BME280;8731;50.364;8.958;2022-07-17T01:43:59;101040.91;;;13.24;62.22
17230;BME280;8731;50.364;8.958;2022-07-17T01:48:24;101048.88;;;13.18;62.10
17230;BME280;8731;50.364;8.958;2022-07-17T01:52:48;101060.75;;;13.00;63.13
17230;BME280;8731;50.364;8.958;2022-07-17T01:57:12;101063.78;;;12.96;62.48
17230;BME280;8731;50.364;8.958;2022-07-17T02:01:35;101058.84;;;12.63;64.55
17230;BME280;8731;50.364;8.958;2022-07-17T02:05:57;101071.72;;;12.47;64.87
17230;BME280;8731;50.364;8.958;2022-07-17T02:10:19;101069.44;;;12.24;64.35
17230;BME280;8731;50.364;8.958;2022-07-17T02:14:43;101065.97;;;12.24;65.95
17230;BME280;8731;50.364;8.958;2022-07-17T02:19:05;101065.38;;;12.26;65.37
17230;BME280;8731;50.364;8.958;2022-07-17T02:23:28;101066.44;;;12.28;65.24
17230;BME280;8731;50.364;8.958;2022-07-17T02:27:50;101068.84;;;12.27;64.37
17230;BME280;8731;50.364;8.958;2022-07-17T02:32:14;101069.88;;;12.20;65.43
17230;BME280;8731;50.364;8.958;2022-07-17T02:36:36;101069.72;;;12.19;65.12
17230;BME280;8731;50.364;8.958;2022-07-17T02:40:58;101075.59;;;12.18;64.62
17230;BME280;8731;50.364;8.958;2022-07-17T02:45:20;101078.53;;;11.96;67.67
17230;BME280;8731;50.364;8.958;2022-07-17T02:49:46;101091.56;;;11.91;67.06
17230;BME280;8731;50.364;8.958;2022-07-17T02:54:08;101094.44;;;11.94;66.78
17230;BME280;8731;50.364;8.958;2022-07-17T02:58:31;101096.09;;;11.93;66.67
17230;BME280;8731;50.364;8.958;2022-07-17T03:02:53;101092.09;;;11.80;67.29
17230;BME280;8731;50.364;8.958;2022-07-17T03:07:17;101094.13;;;11.66;67.92
17230;BME280;8731;50.364;8.958;2022-07-17T03:11:39;101097.97;;;11.54;68.75
17230;BME280;8731;50.364;8.958;2022-07-17T03:16:02;101095.25;;;11.53;68.62
17230;BME280;8731;50.364;8.958;2022-07-17T03:20:25;101091.47;;;11.49;67.94
17230;BME280;8731;50.364;8.958;2022-07-17T03:24:49;101082.59;;;11.37;68.01
17230;BME280;8731;50.364;8.958;2022-07-17T03:29:11;101091.97;;;11.29;68.73
17230;BME280;8731;50.364;8.958;2022-07-17T03:33:37;101090.84;;;11.19;69.42
17230;BME280;8731;50.364;8.958;2022-07-17T03:37:59;101089.38;;;11.21;68.88
17230;BME280;8731;50.364;8.958;2022-07-17T03:42:23;101076.72;;;11.14;67.40
17230;BME280;8731;50.364;8.958;2022-07-17T03:46:45;101085.63;;;11.01;68.88
17230;BME280;8731;50.364;8.958;2022-07-17T03:51:07;101086.66;;;10.32;74.32
17230;BME280;8731;50.364;8.958;2022-07-17T03:55:30;101084.84;;;10.78;70.79
17230;BME280;8731;50.364;8.958;2022-07-17T03:59:53;101086.06;;;10.82;70.13
17230;BME280;8731;50.364;8.958;2022-07-17T04:04:16;101083.34;;;10.80;70.60
17230;BME280;8731;50.364;8.958;2022-07-17T04:08:38;101096.34;;;10.74;71.50
17230;BME280;8731;50.364;8.958;2022-07-17T04:13:00;101100.13;;;10.78;70.94
17230;BME280;8731;50.364;8.958;2022-07-17T04:17:24;101104.25;;;10.69;72.18
17230;BME280;8731;50.364;8.958;2022-07-17T04:21:46;101102.25;;;10.82;71.29
17230;BME280;8731;50.364;8.958;2022-07-17T04:26:09;101102.81;;;10.80;71.60
17230;BME280;8731;50.364;8.958;2022-07-17T04:30:31;101118.75;;;10.86;72.26
17230;BME280;8731;50.364;8.958;2022-07-17T04:34:55;101113.81;;;10.87;70.37
17230;BME280;8731;50.364;8.958;2022-07-17T04:39:17;101113.44;;;10.91;72.71
17230;BME280;8731;50.364;8.958;2022-07-17T04:43:40;101123.94;;;10.94;71.70
17230;BME280;8731;50.364;8.958;2022-07-17T04:48:02;101132.00;;;11.30;71.27
17230;BME280;8731;50.364;8.958;2022-07-17T04:52:27;101133.03;;;11.97;70.76
17230;BME280;8731;50.364;8.958;2022-07-17T04:56:49;101147.16;;;12.44;68.90
17230;BME280;8731;50.364;8.958;2022-07-17T05:01:11;101136.44;;;13.24;68.91
17230;BME280;8731;50.364;8.958;2022-07-17T05:05:33;101133.31;;;14.16;67.62
17230;BME280;8731;50.364;8.958;2022-07-17T05:09:57;101135.59;;;14.49;66.76
17230;BME280;8731;50.364;8.958;2022-07-17T05:14:20;101129.34;;;15.02;65.21
17230;BME280;8731;50.364;8.958;2022-07-17T05:18:42;101134.13;;;15.84;62.84
17230;BME280;8731;50.364;8.958;2022-07-17T05:23:04;101125.50;;;16.43;61.66
17230;BME280;8731;50.364;8.958;2022-07-17T05:27:28;101121.16;;;16.73;60.58
17230;BME280;8731;50.364;8.958;2022-07-17T05:31:50;101115.28;;;17.68;59.48
17230;BME280;8731;50.364;8.958;2022-07-17T05:36:13;101116.84;;;18.10;57.63
17230;BME280;8731;50.364;8.958;2022-07-17T05:40:35;101117.25;;;18.60;56.72
17230;BME280;8731;50.364;8.958;2022-07-17T05:44:58;101111.63;;;19.11;54.60
17230;BME280;8731;50.364;8.958;2022-07-17T05:49:21;101124.03;;;19.86;54.38
17230;BME280;8731;50.364;8.958;2022-07-17T05:53:43;101118.25;;;20.39;53.78
17230;BME280;8731;50.364;8.958;2022-07-17T05:58:06;101125.06;;;20.88;52.77
17230;BME280;8731;50.364;8.958;2022-07-17T06:02:29;101128.59;;;21.68;51.12
17230;BME280;8731;50.364;8.958;2022-07-17T06:06:52;101138.16;;;21.82;49.90
17230;BME280;8731;50.364;8.958;2022-07-17T06:11:14;101143.22;;;21.01;52.12
17230;BME280;8731;50.364;8.958;2022-07-17T06:15:36;101123.91;;;21.23;51.69
17230;BME280;8731;50.364;8.958;2022-07-17T06:20:00;101117.59;;;22.41;47.89
17230;BME280;8731;50.364;8.958;2022-07-17T06:24:23;101118.03;;;23.21;47.59
17230;BME280;8731;50.364;8.958;2022-07-17T06:28:45;101097.13;;;23.65;45.89
17230;BME280;8731;50.364;8.958;2022-07-17T06:33:08;101103.25;;;23.05;47.58
17230;BME280;8731;50.364;8.958;2022-07-17T06:37:31;101092.56;;;24.25;44.89
17230;BME280;8731;50.364;8.958;2022-07-17T06:41:54;101103.03;;;24.10;44.11
17230;BME280;8731;50.364;8.958;2022-07-17T06:46:16;101116.03;;;24.41;43.53
17230;BME280;8731;50.364;8.958;2022-07-17T06:50:38;101115.00;;;25.41;42.80
17230;BME280;8731;50.364;8.958;2022-07-17T06:55:03;101128.00;;;24.71;43.83
17230;BME280;8731;50.364;8.958;2022-07-17T06:59:26;101126.53;;;26.01;40.95
17230;BME280;8731;50.364;8.958;2022-07-17T07:03:49;101114.63;;;25.16;39.90
17230;BME280;8731;50.364;8.958;2022-07-17T07:08:11;101120.50;;;25.65;40.12
17230;BME280;8731;50.364;8.958;2022-07-17T07:12:34;101113.09;;;26.50;40.12
17230;BME280;8731;50.364;8.958;2022-07-17T07:16:57;101119.56;;;26.19;38.56
17230;BME280;8731;50.364;8.958;2022-07-17T07:21:19;101113.50;;;26.59;41.15
17230;BME280;8731;50.364;8.958;2022-07-17T07:25:43;101112.84;;;26.84;38.48
17230;BME280;8731;50.364;8.958;2022-07-17T07:30:09;101098.91;;;27.47;39.05
17230;BME280;8731;50.364;8.958;2022-07-17T07:34:32;101098.72;;;27.00;39.71
17230;BME280;8731;50.364;8.958;2022-07-17T07:38:54;101086.63;;;28.37;36.72
17230;BME280;8731;50.364;8.958;2022-07-17T07:43:16;101083.66;;;28.78;35.11
17230;BME280;8731;50.364;8.958;2022-07-17T07:47:45;101080.28;;;28.82;32.84
17230;BME280;8731;50.364;8.958;2022-07-17T07:52:08;101078.63;;;29.64;33.37
17230;BME280;8731;50.364;8.958;2022-07-17T07:56:30;101075.88;;;29.06;31.94
17230;BME280;8731;50.364;8.958;2022-07-17T08:00:52;101066.34;;;28.32;32.96
17230;BME280;8731;50.364;8.958;2022-07-17T08:05:16;101071.13;;;28.20;34.90
17230;BME280;8731;50.364;8.958;2022-07-17T08:09:38;101067.19;;;29.92;31.89
17230;BME280;8731;50.364;8.958;2022-07-17T08:14:01;101062.63;;;30.48;30.67
17230;BME280;8731;50.364;8.958;2022-07-17T08:18:23;101049.22;;;30.71;29.33
17230;BME280;8731;50.364;8.958;2022-07-17T08:22:48;101051.69;;;30.65;28.43
17230;BME280;8731;50.364;8.958;2022-07-17T08:27:10;101043.25;;;31.14;27.78
17230;BME280;8731;50.364;8.958;2022-07-17T08:31:33;101054.25;;;30.98;28.10
17230;BME280;8731;50.364;8.958;2022-07-17T08:35:55;101051.53;;;30.93;27.52
17230;BME280;8731;50.364;8.958;2022-07-17T08:40:22;101054.75;;;29.57;30.39
17230;BME280;8731;50.364;8.958;2022-07-17T08:44:46;101054.41;;;30.05;34.00
17230;BME280;8731;50.364;8.958;2022-07-17T08:49:09;101057.00;;;29.73;30.99
17230;BME280;8731;50.364;8.958;2022-07-17T08:53:34;101051.06;;;30.09;33.64
17230;BME280;8731;50.364;8.958;2022-07-17T08:57:58;101046.09;;;29.89;29.67
17230;BME280;8731;50.364;8.958;2022-07-17T09:02:20;101049.16;;;29.45;29.13
17230;BME280;8731;50.364;8.958;2022-07-17T09:06:42;101046.84;;;30.80;28.66
17230;BME280;8731;50.364;8.958;2022-07-17T09:11:05;101041.97;;;28.60;30.72
17230;BME280;8731;50.364;8.958;2022-07-17T09:15:33;101034.59;;;29.27;31.96
17230;BME280;8731;50.364;8.958;2022-07-17T09:19:55;101027.13;;;31.36;29.17
17230;BME280;8731;50.364;8.958;2022-07-17T09:24:17;101034.06;;;31.33;27.97
17230;BME280;8731;50.364;8.958;2022-07-17T09:28:46;101027.38;;;31.47;25.40
17230;BME280;8731;50.364;8.958;2022-07-17T09:33:14;101032.03;;;31.60;27.61
17230;BME280;8731;50.364;8.958;2022-07-17T09:37:38;101027.56;;;31.98;26.47
17230;BME280;8731;50.364;8.958;2022-07-17T09:42:00;101028.44;;;32.43;26.32
17230;BME280;8731;50.364;8.958;2022-07-17T09:46:24;101019.09;;;32.64;25.47
17230;BME280;8731;50.364;8.958;2022-07-17T09:50:49;101020.78;;;32.11;28.01
17230;BME280;8731;50.364;8.958;2022-07-17T09:55:12;101021.59;;;31.24;25.76
17230;BME280;8731;50.364;8.958;2022-07-17T09:59:36;101012.88;;;31.69;26.12
17230;BME280;8731;50.364;8.958;2022-07-17T10:04:00;101009.59;;;32.73;25.74
17230;BME280;8731;50.364;8.958;2022-07-17T10:08:24;101014.00;;;31.79;25.07
17230;BME280;8731;50.364;8.958;2022-07-17T10:12:48;101006.31;;;32.87;24.91
17230;BME280;8731;50.364;8.958;2022-07-17T10:17:13;101015.69;;;32.69;28.10
17230;BME280;8731;50.364;8.958;2022-07-17T10:21:52;101021.84;;;33.90;24.29
17230;BME280;8731;50.364;8.958;2022-07-17T10:26:30;101018.53;;;34.08;24.48
17230;BME280;8731;50.364;8.958;2022-07-17T10:30:53;101017.72;;;34.16;24.29
17230;BME280;8731;50.364;8.958;2022-07-17T10:35:15;101012.53;;;34.26;24.08
17230;BME280;8731;50.364;8.958;2022-07-17T10:39:37;101014.31;;;33.52;23.93
17230;BME280;8731;50.364;8.958;2022-07-17T10:44:01;101011.50;;;32.81;24.61
17230;BME280;8731;50.364;8.958;2022-07-17T10:48:24;101016.44;;;34.64;23.26
17230;BME280;8731;50.364;8.958;2022-07-17T10:53:06;101013.03;;;34.82;22.16
17230;BME280;8731;50.364;8.958;2022-07-17T10:57:30;101010.72;;;35.28;21.95
17230;BME280;8731;50.364;8.958;2022-07-17T11:01:57;101014.16;;;35.13;21.40
17230;BME280;8731;50.364;8.958;2022-07-17T11:06:21;101019.88;;;32.11;21.77
17230;BME280;8731;50.364;8.958;2022-07-17T11:10:45;101012.00;;;33.80;20.20
17230;BME280;8731;50.364;8.958;2022-07-17T11:15:08;101008.47;;;34.61;21.50
17230;BME280;8731;50.364;8.958;2022-07-17T11:19:33;101008.41;;;32.07;21.48
17230;BME280;8731;50.364;8.958;2022-07-17T11:23:58;101006.69;;;32.57;22.63
17230;BME280;8731;50.364;8.958;2022-07-17T11:28:34;100999.84;;;31.72;21.94
17230;BME280;8731;50.364;8.958;2022-07-17T11:32:58;101003.00;;;31.57;22.56
17230;BME280;8731;50.364;8.958;2022-07-17T11:37:28;100997.00;;;30.86;22.26
17230;BME280;8731;50.364;8.958;2022-07-17T11:41:52;100995.59;;;30.31;22.95
17230;BME280;8731;50.364;8.958;2022-07-17T11:46:15;100994.22;;;31.18;21.93
17230;BME280;8731;50.364;8.958;2022-07-17T11:50:37;100995.75;;;30.37;24.74
17230;BME280;8731;50.364;8.958;2022-07-17T11:55:01;100991.91;;;31.31;24.05
17230;BME280;8731;50.364;8.958;2022-07-17T11:59:25;100991.00;;;30.93;23.31
17230;BME280;8731;50.364;8.958;2022-07-17T12:04:02;100985.69;;;31.28;23.22
17230;BME280;8731;50.364;8.958;2022-07-17T12:08:25;100975.78;;;30.45;25.04
17230;BME280;8731;50.364;8.958;2022-07-17T12:12:54;100984.50;;;30.76;23.37
17230;BME280;8731;50.364;8.958;2022-07-17T12:17:18;100967.53;;;30.65;23.78
17230;BME280;8731;50.364;8.958;2022-07-17T12:21:51;100975.06;;;29.85;23.90
17230;BME280;8731;50.364;8.958;2022-07-17T12:26:17;100961.31;;;29.95;24.10
17230;BME280;8731;50.364;8.958;2022-07-17T12:30:42;100969.00;;;28.99;25.33
17230;BME280;8731;50.364;8.958;2022-07-17T12:35:05;100962.38;;;29.70;24.79
17230;BME280;8731;50.364;8.958;2022-07-17T12:39:27;100957.72;;;30.23;23.25
17230;BME280;8731;50.364;8.958;2022-07-17T12:43:50;100953.69;;;30.37;24.32
17230;BME280;8731;50.364;8.958;2022-07-17T12:48:13;100956.31;;;29.43;25.46
17230;BME280;8731;50.364;8.958;2022-07-17T12:52:36;100954.97;;;29.87;22.78
17230;BME280;8731;50.364;8.958;2022-07-17T12:56:58;100945.91;;;29.16;23.25
17230;BME280;8731;50.364;8.958;2022-07-17T13:01:20;100942.50;;;29.80;23.84
17230;BME280;8731;50.364;8.958;2022-07-17T13:05:44;100933.41;;;29.99;23.70
17230;BME280;8731;50.364;8.958;2022-07-17T13:10:07;100934.41;;;29.11;24.58
17230;BME280;8731;50.364;8.958;2022-07-17T13:14:30;100920.94;;;29.58;24.06
17230;BME280;8731;50.364;8.958;2022-07-17T13:18:52;100929.38;;;29.18;23.39
17230;BME280;8731;50.364;8.958;2022-07-17T13:23:16;100917.28;;;29.23;24.74
17230;BME280;8731;50.364;8.958;2022-07-17T13:27:39;100921.03;;;29.61;23.59
17230;BME280;8731;50.364;8.958;2022-07-17T13:32:03;100913.31;;;29.68;24.23
17230;BME280;8731;50.364;8.958;2022-07-17T13:36:26;100907.16;;;29.07;24.84
17230;BME280;8731;50.364;8.958;2022-07-17T13:40:50;100900.75;;;29.89;23.72
17230;BME280;8731;50.364;8.958;2022-07-17T13:45:12;100887.16;;;29.72;22.12
17230;BME280;8731;50.364;8.958;2022-07-17T13:49:35;100894.13;;;29.10;22.40
17230;BME280;8731;50.364;8.958;2022-07-17T13:53:57;100893.63;;;29.52;22.39
17230;BME280;8731;50.364;8.958;2022-07-17T13:58:21;100892.06;;;29.91;22.79
17230;BME280;8731;50.364;8.958;2022-07-17T14:02:43;100888.09;;;30.06;21.80
17230;BME280;8731;50.364;8.958;2022-07-17T14:07:06;100886.16;;;29.67;21.31
17230;BME280;8731;50.364;8.958;2022-07-17T14:11:29;100883.13;;;29.52;25.30
17230;BME280;8731;50.364;8.958;2022-07-17T14:15:52;100883.56;;;29.07;22.10
17230;BME280;8731;50.364;8.958;2022-07-17T14:20:15;100865.44;;;29.45;21.18
17230;BME280;8731;50.364;8.958;2022-07-17T14:24:37;100872.56;;;29.82;23.03
17230;BME280;8731;50.364;8.958;2022-07-17T14:29:01;100864.72;;;29.83;22.45
17230;BME280;8731;50.364;8.958;2022-07-17T14:33:24;100867.38;;;29.85;21.72
17230;BME280;8731;50.364;8.958;2022-07-17T14:37:47;100862.28;;;29.91;21.39
17230;BME280;8731;50.364;8.958;2022-07-17T14:42:09;100865.38;;;30.08;21.02
17230;BME280;8731;50.364;8.958;2022-07-17T14:46:31;100861.50;;;29.95;21.63
17230;BME280;8731;50.364;8.958;2022-07-17T14:50:55;100859.53;;;29.86;21.45
17230;BME280;8731;50.364;8.958;2022-07-17T14:55:17;100858.63;;;30.19;22.42
17230;BME280;8731;50.364;8.958;2022-07-17T14:59:40;100853.38;;;30.19;22.21
17230;BME280;8731;50.364;8.958;2022-07-17T15:04:02;100849.03;;;30.21;21.79
17230;BME280;8731;50.364;8.958;2022-07-17T15:08:26;100852.19;;;29.73;21.99
17230;BME280;8731;50.364;8.958;2022-07-17T15:12:49;100854.50;;;29.95;22.34
17230;BME280;8731;50.364;8.958;2022-07-17T15:17:11;100849.50;;;30.05;22.76
17230;BME280;8731;50.364;8.958;2022-07-17T15:21:33;100847.72;;;30.04;22.77
17230;BME280;8731;50.364;8.958;2022-07-17T15:25:57;100837.88;;;29.95;21.25
17230;BME280;8731;50.364;8.958;2022-07-17T15:30:19;100842.41;;;29.68;21.67
17230;BME280;8731;50.364;8.958;2022-07-17T15:34:41;100844.31;;;30.06;22.02
17230;BME280;8731;50.364;8.958;2022-07-17T15:39:04;100827.44;;;29.98;22.73
17230;BME280;8731;50.364;8.958;2022-07-17T15:43:28;100830.38;;;30.09;21.89
17230;BME280;8731;50.364;8.958;2022-07-17T15:47:50;100826.97;;;30.13;22.34
17230;BME280;8731;50.364;8.958;2022-07-17T15:52:14;100820.78;;;30.11;22.80
17230;BME280;8731;50.364;8.958;2022-07-17T15:56:36;100821.56;;;29.74;22.10
17230;BME280;8731;50.364;8.958;2022-07-17T16:01:01;100816.75;;;29.90;20.99
17230;BME280;8731;50.364;8.958;2022-07-17T16:05:23;100811.66;;;29.62;21.54
17230;BME280;8731;50.364;8.958;2022-07-17T16:09:45;100796.84;;;30.00;21.99
17230;BME280;8731;50.364;8.958;2022-07-17T16:14:08;100801.66;;;29.82;20.91
17230;BME280;8731;50.364;8.958;2022-07-17T16:18:31;100801.31;;;29.68;21.76
17230;BME280;8731;50.364;8.958;2022-07-17T16:22:53;100796.31;;;29.79;20.77
17230;BME280;8731;50.364;8.958;2022-07-17T16:27:16;100799.22;;;29.56;21.13
17230;BME280;8731;50.364;8.958;2022-07-17T16:31:38;100792.72;;;29.75;21.88
17230;BME280;8731;50.364;8.958;2022-07-17T16:36:04;100794.50;;;29.76;21.54
17230;BME280;8731;50.364;8.958;2022-07-17T16:40:29;100779.69;;;29.80;22.25
17230;BME280;8731;50.364;8.958;2022-07-17T16:44:52;100787.88;;;29.24;21.51
17230;BME280;8731;50.364;8.958;2022-07-17T16:49:14;100783.50;;;29.25;22.26
17230;BME280;8731;50.364;8.958;2022-07-17T16:53:41;100778.16;;;29.53;22.14
17230;BME280;8731;50.364;8.958;2022-07-17T16:58:03;100776.78;;;29.34;22.28
17230;BME280;8731;50.364;8.958;2022-07-17T17:02:27;100773.09;;;29.28;22.55
17230;BME280;8731;50.364;8.958;2022-07-17T17:06:49;100770.66;;;29.34;23.32
17230;BME280;8731;50.364;8.958;2022-07-17T17:11:13;100775.44;;;29.17;23.58
17230;BME280;8731;50.364;8.958;2022-07-17T17:15:35;100767.75;;;29.25;23.42
17230;BME280;8731;50.364;8.958;2022-07-17T17:19:57;100766.00;;;29.24;23.56
17230;BME280;8731;50.364;8.958;2022-07-17T17:24:20;100766.84;;;29.23;23.58
17230;BME280;8731;50.364;8.958;2022-07-17T17:28:43;100766.63;;;29.15;23.92
17230;BME280;8731;50.364;8.958;2022-07-17T17:33:06;100763.91;;;29.11;24.15
17230;BME280;8731;50.364;8.958;2022-07-17T17:37:28;100761.41;;;29.15;24.69
17230;BME280;8731;50.364;8.958;2022-07-17T17:41:50;100763.22;;;29.18;24.98
17230;BME280;8731;50.364;8.958;2022-07-17T17:46:14;100762.91;;;29.07;25.13
17230;BME280;8731;50.364;8.958;2022-07-17T17:50:37;100762.75;;;29.01;25.73
17230;BME280;8731;50.364;8.958;2022-07-17T17:54:59;100767.75;;;28.92;26.26
17230;BME280;8731;50.364;8.958;2022-07-17T17:59:21;100766.72;;;28.87;26.60
17230;BME280;8731;50.364;8.958;2022-07-17T18:03:45;100765.72;;;28.85;27.45
17230;BME280;8731;50.364;8.958;2022-07-17T18:08:07;100763.88;;;28.81;27.45
17230;BME280;8731;50.364;8.958;2022-07-17T18:12:31;100772.34;;;28.70;27.51
17230;BME280;8731;50.364;8.958;2022-07-17T18:16:53;100767.69;;;28.62;27.64
17230;BME280;8731;50.364;8.958;2022-07-17T18:21:17;100773.59;;;28.55;27.85
17230;BME280;8731;50.364;8.958;2022-07-17T18:25:41;100763.94;;;28.52;27.86
17230;BME280;8731;50.364;8.958;2022-07-17T18:30:04;100763.31;;;28.32;28.22
17230;BME280;8731;50.364;8.958;2022-07-17T18:34:27;100766.69;;;28.28;28.60
17230;BME280;8731;50.364;8.958;2022-07-17T18:38:53;100765.25;;;28.11;28.84
17230;BME280;8731;50.364;8.958;2022-07-17T18:43:15;100761.19;;;27.92;29.46
17230;BME280;8731;50.364;8.958;2022-07-17T18:47:41;100772.81;;;27.75;29.69
17230;BME280;8731;50.364;8.958;2022-07-17T18:52:08;100769.00;;;27.65;29.71
17230;BME280;8731;50.364;8.958;2022-07-17T18:56:31;100776.16;;;27.45;30.67
17230;BME280;8731;50.364;8.958;2022-07-17T19:00:54;100780.28;;;27.39;30.93
17230;BME280;8731;50.364;8.958;2022-07-17T19:05:16;100773.63;;;27.23;31.21
17230;BME280;8731;50.364;8.958;2022-07-17T19:09:38;100789.66;;;27.08;30.75
17230;BME280;8731;50.364;8.958;2022-07-17T19:14:05;100787.00;;;26.84;31.95
17230;BME280;8731;50.364;8.958;2022-07-17T19:18:27;100796.19;;;26.51;32.73
17230;BME280;8731;50.364;8.958;2022-07-17T19:22:49;100809.75;;;25.99;33.14
17230;BME280;8731;50.364;8.958;2022-07-17T19:27:12;100803.81;;;25.81;34.16
17230;BME280;8731;50.364;8.958;2022-07-17T19:31:36;100809.25;;;25.87;33.95
17230;BME280;8731;50.364;8.958;2022-07-17T19:35:59;100809.56;;;25.74;33.18
17230;BME280;8731;50.364;8.958;2022-07-17T19:40:21;100814.38;;;25.24;34.36
17230;BME280;8731;50.364;8.958;2022-07-17T19:44:45;100826.63;;;25.27;34.28
17230;BME280;8731;50.364;8.958;2022-07-17T19:49:09;100827.25;;;25.21;34.27
17230;BME280;8731;50.364;8.958;2022-07-17T19:53:31;100823.06;;;25.05;33.85
17230;BME280;8731;50.364;8.958;2022-07-17T19:57:54;100829.50;;;24.94;33.75
17230;BME280;8731;50.364;8.958;2022-07-17T20:02:16;100833.34;;;24.28;36.24
17230;BME280;8731;50.364;8.958;2022-07-17T20:06:40;100840.94;;;24.41;35.93
17230;BME280;8731;50.364;8.958;2022-07-17T20:11:05;100837.19;;;24.36;36.38
17230;BME280;8731;50.364;8.958;2022-07-17T20:15:28;100838.28;;;24.06;36.63
17230;BME280;8731;50.364;8.958;2022-07-17T20:19:50;100844.84;;;23.81;36.74
17230;BME280;8731;50.364;8.958;2022-07-17T20:24:17;100849.16;;;23.81;36.58
17230;BME280;8731;50.364;8.958;2022-07-17T20:28:39;100847.53;;;23.33;37.28
17230;BME280;8731;50.364;8.958;2022-07-17T20:33:02;100837.69;;;23.43;37.03
17230;BME280;8731;50.364;8.958;2022-07-17T20:37:25;100850.22;;;23.02;37.96
17230;BME280;8731;50.364;8.958;2022-07-17T20:41:48;100841.03;;;22.61;39.41
17230;BME280;8731;50.364;8.958;2022-07-17T20:46:13;100847.16;;;22.78;38.87
17230;BME280;8731;50.364;8.958;2022-07-17T20:50:35;100841.41;;;22.52;39.46
17230;BME280;8731;50.364;8.958;2022-07-17T20:54:58;100845.34;;;22.46;39.35
17230;BME280;8731;50.364;8.958;2022-07-17T20:59:21;100857.41;;;22.29;39.41
17230;BME280;8731;50.364;8.958;2022-07-17T21:03:44;100873.16;;;22.17;39.74
17230;BME280;8731;50.364;8.958;2022-07-17T21:08:06;100871.09;;;22.12;39.54
17230;BME280;8731;50.364;8.958;2022-07-17T21:12:28;100863.78;;;21.47;41.76
17230;BME280;8731;50.364;8.958;2022-07-17T21:16:52;100871.63;;;21.21;42.74
17230;BME280;8731;50.364;8.958;2022-07-17T21:21:14;100874.41;;;21.37;41.58
17230;BME280;8731;50.364;8.958;2022-07-17T21:25:37;100877.06;;;21.10;43.39
17230;BME280;8731;50.364;8.958;2022-07-17T21:29:59;100881.38;;;20.97;44.07
17230;BME280;8731;50.364;8.958;2022-07-17T21:34:23;100881.22;;;20.80;44.15
17230;BME280;8731;50.364;8.958;2022-07-17T21:38:45;100883.69;;;20.92;43.87
17230;BME280;8731;50.364;8.958;2022-07-17T21:43:07;100879.13;;;20.88;43.76
17230;BME280;8731;50.364;8.958;2022-07-17T21:47:30;100886.53;;;20.56;44.23
17230;BME280;8731;50.364;8.958;2022-07-17T21:51:53;100883.13;;;20.57;44.35
17230;BME280;8731;50.364;8.958;2022-07-17T21:56:16;100888.06;;;19.87;47.54
17230;BME280;8731;50.364;8.958;2022-07-17T22:00:38;100887.00;;;20.23;45.51
17230;BME280;8731;50.364;8.958;2022-07-17T22:05:01;100869.41;;;20.18;44.89
17230;BME280;8731;50.364;8.958;2022-07-17T22:09:26;100871.69;;;20.13;45.41
17230;BME280;8731;50.364;8.958;2022-07-17T22:13:49;100874.84;;;20.09;45.10
17230;BME280;8731;50.364;8.958;2022-07-17T22:18:11;100881.00;;;19.98;45.62
17230;BME280;8731;50.364;8.958;2022-07-17T22:22:34;100874.00;;;19.84;45.75
17230;BME280;8731;50.364;8.958;2022-07-17T22:26:59;100879.28;;;19.85;45.89
17230;BME280;8731;50.364;8.958;2022-07-17T22:31:22;100874.31;;;19.75;45.76
17230;BME280;8731;50.364;8.958;2022-07-17T22:35:45;100884.59;;;19.00;49.29
17230;BME280;8731;50.364;8.958;2022-07-17T22:40:08;100881.44;;;19.05;47.94
17230;BME280;8731;50.364;8.958;2022-07-17T22:44:32;100883.75;;;19.25;47.46
17230;BME280;8731;50.364;8.958;2022-07-17T22:48:54;100891.56;;;19.01;49.15
17230;BME280;8731;50.364;8.958;2022-07-17T22:53:17;100890.47;;;18.86;49.28
17230;BME280;8731;50.364;8.958;2022-07-17T22:57:39;100889.94;;;18.67;49.44
17230;BME280;8731;50.364;8.958;2022-07-17T23:02:04;100899.69;;;18.48;50.29
17230;BME280;8731;50.364;8.958;2022-07-17T23:06:27;100903.03;;;18.58;49.44
17230;BME280;8731;50.364;8.958;2022-07-17T23:10:50;100899.69;;;18.48;49.71
17230;BME280;8731;50.364;8.958;2022-07-17T23:15:12;100903.06;;;18.47;49.38